sensor_id;sensor_type;location;lat;lon;timestamp;pressure;altitude;pressure_sealevel;temperature;humidity
33075;BME280;19433;51.292;6.868;2022-11-21T06:29:49;99277.69;;;3.18;100.00
33075;BME280;19433;51.292;6.868;2022-11-21T06:32:14;99271.66;;;3.23;100.00
33075;BME280;19433;51.292;6.868;2022-11-21T06:34:40;99268.66;;;3.33;100.00
33075;BME280;19433;51.292;6.868;2022-11-21T06:37:05;99266.31;;;3.44;100.00
33075;BME280;19433;51.292;6.868;2022-11-21T06:39:30;99261.78;;;3.37;100.00
33075;BME280;19433;51.292;6.868;2022-11-21T06:41:55;99270.44;;;3.40;100.00
33075;BME280;19433;51.292;6.868;2022-11-21T06:44:21;99264.91;;;3.34;100.00
33075;BME280;19433;51.292;6.868;2022-11-21T06:46:46;99260.66;;;3.31;100.00
33075;BME280;19433;51.292;6.868;2022-11-21T06:49:11;99272.91;;;3.21;100.00
33075;BME280;19433;51.292;6.868;2022-11-21T06:51:37;99270.75;;;3.31;100.00
33075;BME280;19433;51.292;6.868;2022-11-21T06:54:02;99263.97;;;3.41;100.00
33075;BME280;19433;51.292;6.868;2022-11-21T06:56:28;99264.72;;;3.50;100.00
33075;BME280;19433;51.292;6.868;2022-11-21T06:58:55;99263.22;;;3.47;100.00
33075;BME280;19433;51.292;6.868;2022-11-21T07:01:20;99273.53;;;3.52;100.00
33075;BME280;19433;51.292;6.868;2022-11-21T07:03:47;99267.72;;;3.55;100.00
33075;BME280;19433;51.292;6.868;2022-11-21T07:06:12;99267.53;;;3.42;100.00
33075;BME280;19433;51.292;6.868;2022-11-21T07:08:38;99268.50;;;3.49;100.00
33075;BME280;19433;51.292;6.868;2022-11-21T07:11:07;99276.09;;;3.53;100.00
33075;BME280;19433;51.292;6.868;2022-11-21T07:13:33;99270.75;;;3.45;100.00
33075;BME280;19433;51.292;6.868;2022-11-21T07:16:04;99267.63;;;3.48;100.00
33075;BME280;19433;51.292;6.868;2022-11-21T07:18:30;99260.97;;;3.51;100.00
33075;BME280;19433;51.292;6.868;2022-11-21T07:21:00;99264.31;;;3.53;100.00
33075;BME280;19433;51.292;6.868;2022-11-21T07:23:26;99273.66;;;3.44;100.00
33075;BME280;19433;51.292;6.868;2022-11-21T07:25:51;99253.50;;;3.45;100.00
33075;BME280;19433;51.292;6.868;2022-11-21T07:28:16;99256.34;;;3.66;100.00
33075;BME280;19433;51.292;6.868;2022-11-21T07:30:42;99250.56;;;3.76;100.00
33075;BME280;19433;51.292;6.868;2022-11-21T07:33:08;99254.03;;;3.70;100.00
33075;BME280;19433;51.292;6.868;2022-11-21T07:35:34;99243.03;;;3.78;100.00
33075;BME280;19433;51.292;6.868;2022-11-21T07:38:00;99250.38;;;3.77;100.00
33075;BME280;19433;51.292;6.868;2022-11-21T07:40:25;99249.16;;;3.80;100.00
33075;BME280;19433;51.292;6.868;2022-11-21T07:42:51;99244.63;;;3.72;100.00
33075;BME280;19433;51.292;6.868;2022-11-21T07:45:17;99241.91;;;3.72;100.00
33075;BME280;19433;51.292;6.868;2022-11-21T07:47:42;99242.34;;;3.91;100.00
33075;BME280;19433;51.292;6.868;2022-11-21T07:50:11;99251.44;;;3.98;100.00
33075;BME280;19433;51.292;6.868;2022-11-21T07:52:37;99255.78;;;4.07;100.00
33075;BME280;19433;51.292;6.868;2022-11-21T07:55:03;99248.25;;;4.09;100.00
33075;BME280;19433;51.292;6.868;2022-11-21T07:57:30;99246.16;;;4.11;100.00
33075;BME280;19433;51.292;6.868;2022-11-21T07:59:56;99245.38;;;4.17;100.00
33075;BME280;19433;51.292;6.868;2022-11-21T08:02:23;99253.06;;;4.28;100.00
33075;BME280;19433;51.292;6.868;2022-11-21T08:04:49;99256.16;;;4.40;100.00
33075;BME280;19433;51.292;6.868;2022-11-21T08:07:15;99250.59;;;4.33;100.00
33075;BME280;19433;51.292;6.868;2022-11-21T08:09:41;99239.94;;;4.38;100.00
33075;BME280;19433;51.292;6.868;2022-11-21T08:12:07;99224.56;;;4.37;100.00
33075;BME280;19433;51.292;6.868;2022-11-21T08:14:33;99233.09;;;4.28;100.00
33075;BME280;19433;51.292;6.868;2022-11-21T08:16:58;99221.44;;;4.40;100.00
33075;BME280;19433;51.292;6.868;2022-11-21T08:19:23;99219.78;;;4.46;100.00
33075;BME280;19433;51.292;6.868;2022-11-21T08:21:49;99216.41;;;4.44;100.00
33075;BME280;19433;51.292;6.868;2022-11-21T08:24:14;99221.28;;;4.48;100.00
33075;BME280;19433;51.292;6.868;2022-11-21T08:26:41;99223.00;;;4.49;100.00
33075;BME280;19433;51.292;6.868;2022-11-21T08:29:06;99220.84;;;4.45;100.00
33075;BME280;19433;51.292;6.868;2022-11-21T08:31:32;99226.19;;;4.53;100.00
33075;BME280;19433;51.292;6.868;2022-11-21T08:33:57;99233.28;;;4.69;100.00
33075;BME280;19433;51.292;6.868;2022-11-21T08:36:23;99229.50;;;4.70;100.00
33075;BME280;19433;51.292;6.868;2022-11-21T08:38:48;99235.72;;;4.85;100.00
33075;BME280;19433;51.292;6.868;2022-11-21T08:41:13;99237.47;;;4.92;100.00
33075;BME280;19433;51.292;6.868;2022-11-21T08:43:57;99231.50;;;4.82;100.00
33075;BME280;19433;51.292;6.868;2022-11-21T08:46:22;99222.91;;;4.85;100.00
33075;BME280;19433;51.292;6.868;2022-11-21T08:48:52;99223.59;;;4.94;100.00
33075;BME280;19433;51.292;6.868;2022-11-21T08:51:18;99222.16;;;4.98;100.00
33075;BME280;19433;51.292;6.868;2022-11-21T08:53:43;99225.16;;;5.10;100.00
33075;BME280;19433;51.292;6.868;2022-11-21T08:56:09;99230.94;;;4.93;100.00
33075;BME280;19433;51.292;6.868;2022-11-21T08:58:34;99227.03;;;5.03;100.00
33075;BME280;19433;51.292;6.868;2022-11-21T09:00:59;99218.81;;;5.03;100.00
33075;BME280;19433;51.292;6.868;2022-11-21T09:03:24;99220.53;;;5.10;100.00
33075;BME280;19433;51.292;6.868;2022-11-21T09:05:50;99232.06;;;5.06;100.00
33075;BME280;19433;51.292;6.868;2022-11-21T09:08:15;99224.84;;;5.19;100.00
33075;BME280;19433;51.292;6.868;2022-11-21T09:10:40;99211.63;;;5.29;100.00
33075;BME280;19433;51.292;6.868;2022-11-21T09:13:05;99214.19;;;5.38;100.00
33075;BME280;19433;51.292;6.868;2022-11-21T09:15:31;99221.66;;;5.16;100.00
33075;BME280;19433;51.292;6.868;2022-11-21T09:18:14;99222.44;;;5.10;100.00
33075;BME280;19433;51.292;6.868;2022-11-21T09:20:41;99209.34;;;5.05;100.00
33075;BME280;19433;51.292;6.868;2022-11-21T09:23:12;99198.63;;;5.04;100.00
33075;BME280;19433;51.292;6.868;2022-11-21T09:25:38;99196.19;;;5.22;100.00
33075;BME280;19433;51.292;6.868;2022-11-21T09:28:05;99206.88;;;5.45;100.00
33075;BME280;19433;51.292;6.868;2022-11-21T09:30:30;99194.69;;;5.54;100.00
33075;BME280;19433;51.292;6.868;2022-11-21T09:33:03;99194.72;;;5.67;100.00
33075;BME280;19433;51.292;6.868;2022-11-21T09:35:28;99191.63;;;5.77;100.00
33075;BME280;19433;51.292;6.868;2022-11-21T09:37:54;99188.38;;;6.08;100.00
33075;BME280;19433;51.292;6.868;2022-11-21T09:40:20;99198.16;;;6.37;100.00
33075;BME280;19433;51.292;6.868;2022-11-21T09:43:05;99193.53;;;6.63;100.00
33075;BME280;19433;51.292;6.868;2022-11-21T09:46:10;99190.78;;;6.83;100.00
33075;BME280;19433;51.292;6.868;2022-11-21T09:48:56;99183.16;;;7.12;100.00
33075;BME280;19433;51.292;6.868;2022-11-21T09:51:24;99185.50;;;6.95;100.00
33075;BME280;19433;51.292;6.868;2022-11-21T09:54:15;99197.31;;;7.15;100.00
33075;BME280;19433;51.292;6.868;2022-11-21T09:56:42;99191.13;;;7.39;100.00
33075;BME280;19433;51.292;6.868;2022-11-21T09:59:31;99179.81;;;7.74;100.00
33075;BME280;19433;51.292;6.868;2022-11-21T10:01:58;99178.75;;;7.68;100.00
33075;BME280;19433;51.292;6.868;2022-11-21T10:04:25;99182.28;;;7.24;100.00
33075;BME280;19433;51.292;6.868;2022-11-21T10:07:01;99177.03;;;7.16;100.00
33075;BME280;19433;51.292;6.868;2022-11-21T10:09:58;99164.59;;;6.87;100.00
33075;BME280;19433;51.292;6.868;2022-11-21T10:18:05;99150.88;;;6.61;100.00
33075;BME280;19433;51.292;6.868;2022-11-21T10:28:55;99144.75;;;6.46;100.00
33075;BME280;19433;51.292;6.868;2022-11-21T10:31:24;99146.00;;;6.43;100.00
33075;BME280;19433;51.292;6.868;2022-11-21T10:33:55;99148.56;;;6.51;100.00
33075;BME280;19433;51.292;6.868;2022-11-21T10:36:27;99142.88;;;6.66;100.00
33075;BME280;19433;51.292;6.868;2022-11-21T10:38:59;99136.50;;;6.79;100.00
33075;BME280;19433;51.292;6.868;2022-11-21T10:44:28;99122.13;;;6.90;100.00
33075;BME280;19433;51.292;6.868;2022-11-21T10:47:23;99110.09;;;6.91;100.00
33075;BME280;19433;51.292;6.868;2022-11-21T10:50:05;99104.56;;;7.11;100.00
33075;BME280;19433;51.292;6.868;2022-11-21T10:52:47;99111.53;;;7.13;100.00
33075;BME280;19433;51.292;6.868;2022-11-21T10:55:15;99105.47;;;6.78;100.00
33075;BME280;19433;51.292;6.868;2022-11-21T10:57:45;99106.78;;;6.56;100.00
33075;BME280;19433;51.292;6.868;2022-11-21T11:02:38;99099.13;;;6.91;100.00
33075;BME280;19433;51.292;6.868;2022-11-21T11:05:23;99102.69;;;6.98;100.00
33075;BME280;19433;51.292;6.868;2022-11-21T11:10:38;99089.59;;;7.51;100.00
33075;BME280;19433;51.292;6.868;2022-11-21T11:13:14;99081.63;;;7.81;100.00
33075;BME280;19433;51.292;6.868;2022-11-21T11:18:32;99073.56;;;8.18;100.00
33075;BME280;19433;51.292;6.868;2022-11-21T11:21:15;99073.13;;;8.21;100.00
33075;BME280;19433;51.292;6.868;2022-11-21T11:23:41;99074.78;;;8.53;100.00
33075;BME280;19433;51.292;6.868;2022-11-21T11:26:28;99061.06;;;8.90;100.00
33075;BME280;19433;51.292;6.868;2022-11-21T11:29:08;99045.78;;;8.94;100.00
33075;BME280;19433;51.292;6.868;2022-11-21T11:31:44;99036.91;;;8.49;100.00
33075;BME280;19433;51.292;6.868;2022-11-21T11:34:15;99033.25;;;8.30;100.00
33075;BME280;19433;51.292;6.868;2022-11-21T11:42:49;99026.06;;;8.29;100.00
33075;BME280;19433;51.292;6.868;2022-11-21T11:48:45;99011.09;;;8.25;100.00
33075;BME280;19433;51.292;6.868;2022-11-21T11:51:35;99008.91;;;8.33;100.00
33075;BME280;19433;51.292;6.868;2022-11-21T11:54:16;99003.06;;;8.23;100.00
33075;BME280;19433;51.292;6.868;2022-11-21T11:56:42;98995.66;;;8.24;100.00
33075;BME280;19433;51.292;6.868;2022-11-21T11:59:25;98983.88;;;8.10;100.00
33075;BME280;19433;51.292;6.868;2022-11-21T12:02:00;98990.09;;;8.05;100.00
33075;BME280;19433;51.292;6.868;2022-11-21T12:04:28;98985.22;;;8.26;100.00
33075;BME280;19433;51.292;6.868;2022-11-21T12:07:20;98992.56;;;8.57;100.00
33075;BME280;19433;51.292;6.868;2022-11-21T12:12:40;98991.00;;;8.86;100.00
33075;BME280;19433;51.292;6.868;2022-11-21T12:15:14;98988.88;;;8.69;100.00
33075;BME280;19433;51.292;6.868;2022-11-21T12:20:35;98981.91;;;8.67;100.00
33075;BME280;19433;51.292;6.868;2022-11-21T12:23:06;98975.56;;;8.66;100.00
33075;BME280;19433;51.292;6.868;2022-11-21T12:25:37;98971.03;;;8.72;99.78
33075;BME280;19433;51.292;6.868;2022-11-21T12:28:13;98963.63;;;8.54;99.00
33075;BME280;19433;51.292;6.868;2022-11-21T12:31:08;98954.88;;;8.39;99.87
33075;BME280;19433;51.292;6.868;2022-11-21T12:33:44;98936.91;;;8.11;100.00
33075;BME280;19433;51.292;6.868;2022-11-21T12:36:24;98941.88;;;8.03;100.00
33075;BME280;19433;51.292;6.868;2022-11-21T12:39:04;98923.53;;;7.72;100.00
33075;BME280;19433;51.292;6.868;2022-11-21T12:41:47;98930.13;;;7.64;100.00
33075;BME280;19433;51.292;6.868;2022-11-21T12:44:56;98915.31;;;7.40;100.00
33075;BME280;19433;51.292;6.868;2022-11-21T12:50:53;98903.25;;;7.41;100.00
33075;BME280;19433;51.292;6.868;2022-11-21T12:53:56;98893.72;;;7.44;100.00
33075;BME280;19433;51.292;6.868;2022-11-21T12:59:11;98890.69;;;7.27;100.00
33075;BME280;19433;51.292;6.868;2022-11-21T13:04:16;98893.22;;;7.54;100.00
33075;BME280;19433;51.292;6.868;2022-11-21T13:06:44;98885.88;;;7.48;100.00
33075;BME280;19433;51.292;6.868;2022-11-21T13:09:15;98881.25;;;7.48;100.00
33075;BME280;19433;51.292;6.868;2022-11-21T13:14:42;98878.38;;;7.61;100.00
33075;BME280;19433;51.292;6.868;2022-11-21T13:20:05;98869.72;;;7.83;100.00
33075;BME280;19433;51.292;6.868;2022-11-21T13:22:47;98866.13;;;7.82;100.00
33075;BME280;19433;51.292;6.868;2022-11-21T13:38:30;98830.34;;;7.64;100.00
33075;BME280;19433;51.292;6.868;2022-11-21T13:40:56;98826.81;;;7.57;100.00
33075;BME280;19433;51.292;6.868;2022-11-21T13:43:40;98830.72;;;7.67;100.00
33075;BME280;19433;51.292;6.868;2022-11-21T13:46:05;98823.94;;;7.70;100.00
33075;BME280;19433;51.292;6.868;2022-11-21T13:48:43;98819.75;;;7.67;100.00
33075;BME280;19433;51.292;6.868;2022-11-21T13:51:38;98808.31;;;7.70;100.00
33075;BME280;19433;51.292;6.868;2022-11-21T14:02:48;98777.06;;;7.65;100.00
33075;BME280;19433;51.292;6.868;2022-11-21T14:08:21;98774.06;;;7.66;100.00
33075;BME280;19433;51.292;6.868;2022-11-21T14:10:49;98753.06;;;7.54;100.00
33075;BME280;19433;51.292;6.868;2022-11-21T14:16:16;98745.97;;;7.46;100.00
33075;BME280;19433;51.292;6.868;2022-11-21T14:18:45;98743.72;;;7.36;98.79
33075;BME280;19433;51.292;6.868;2022-11-21T14:21:22;98734.22;;;7.39;97.00
33075;BME280;19433;51.292;6.868;2022-11-21T14:23:52;98741.91;;;7.30;95.53
33075;BME280;19433;51.292;6.868;2022-11-21T14:26:19;98731.38;;;7.27;95.57
33075;BME280;19433;51.292;6.868;2022-11-21T14:28:46;98718.81;;;7.13;97.89
33075;BME280;19433;51.292;6.868;2022-11-21T14:31:12;98720.41;;;7.02;94.88
33075;BME280;19433;51.292;6.868;2022-11-21T14:33:39;98707.97;;;7.00;98.52
33075;BME280;19433;51.292;6.868;2022-11-21T14:36:19;98695.47;;;6.79;99.33
33075;BME280;19433;51.292;6.868;2022-11-21T14:46:24;98695.56;;;6.41;100.00
33075;BME280;19433;51.292;6.868;2022-11-21T14:48:50;98694.53;;;6.35;100.00
33075;BME280;19433;51.292;6.868;2022-11-21T14:51:20;98684.22;;;6.31;100.00
33075;BME280;19433;51.292;6.868;2022-11-21T14:53:48;98688.28;;;6.22;100.00
33075;BME280;19433;51.292;6.868;2022-11-21T14:56:25;98680.78;;;6.11;100.00
33075;BME280;19433;51.292;6.868;2022-11-21T14:58:52;98675.88;;;6.13;100.00
33075;BME280;19433;51.292;6.868;2022-11-21T15:01:20;98669.81;;;6.04;100.00
33075;BME280;19433;51.292;6.868;2022-11-21T15:04:05;98653.47;;;5.91;100.00
33075;BME280;19433;51.292;6.868;2022-11-21T15:06:39;98644.38;;;5.84;100.00
33075;BME280;19433;51.292;6.868;2022-11-21T15:09:05;98642.91;;;5.81;100.00
33075;BME280;19433;51.292;6.868;2022-11-21T15:11:50;98641.22;;;5.87;99.72
33075;BME280;19433;51.292;6.868;2022-11-21T15:14:32;98641.06;;;5.75;100.00
33075;BME280;19433;51.292;6.868;2022-11-21T15:17:01;98620.22;;;5.74;99.68
33075;BME280;19433;51.292;6.868;2022-11-21T15:19:28;98624.06;;;5.60;100.00
33075;BME280;19433;51.292;6.868;2022-11-21T15:21:55;98599.63;;;5.65;99.71
33075;BME280;19433;51.292;6.868;2022-11-21T15:24:31;98603.56;;;5.76;99.11
33075;BME280;19433;51.292;6.868;2022-11-21T15:27:00;98581.09;;;5.54;99.21
33075;BME280;19433;51.292;6.868;2022-11-21T15:29:27;98584.44;;;5.62;99.16
33075;BME280;19433;51.292;6.868;2022-11-21T15:32:08;98579.44;;;5.53;100.00
33075;BME280;19433;51.292;6.868;2022-11-21T15:34:33;98572.13;;;5.40;100.00
33075;BME280;19433;51.292;6.868;2022-11-21T15:37:04;98574.50;;;5.30;100.00
33075;BME280;19433;51.292;6.868;2022-11-21T15:39:32;98570.44;;;5.39;100.00
33075;BME280;19433;51.292;6.868;2022-11-21T15:44:59;98562.28;;;5.26;100.00
33075;BME280;19433;51.292;6.868;2022-11-21T15:47:24;98573.22;;;5.33;99.93
33075;BME280;19433;51.292;6.868;2022-11-21T15:49:50;98568.53;;;5.40;100.00
33075;BME280;19433;51.292;6.868;2022-11-21T15:52:15;98567.91;;;5.44;100.00
33075;BME280;19433;51.292;6.868;2022-11-21T15:54:40;98561.22;;;5.34;100.00
33075;BME280;19433;51.292;6.868;2022-11-21T15:57:07;98564.63;;;5.22;100.00
33075;BME280;19433;51.292;6.868;2022-11-21T15:59:33;98566.06;;;5.32;100.00
33075;BME280;19433;51.292;6.868;2022-11-21T16:01:58;98555.97;;;5.32;100.00
33075;BME280;19433;51.292;6.868;2022-11-21T16:04:23;98553.38;;;5.44;99.67
33075;BME280;19433;51.292;6.868;2022-11-21T16:06:49;98550.81;;;5.49;100.00
33075;BME280;19433;51.292;6.868;2022-11-21T16:09:14;98544.13;;;5.38;100.00
33075;BME280;19433;51.292;6.868;2022-11-21T16:11:40;98544.78;;;5.34;100.00
33075;BME280;19433;51.292;6.868;2022-11-21T16:14:07;98551.88;;;5.48;100.00
33075;BME280;19433;51.292;6.868;2022-11-21T16:16:36;98539.69;;;5.37;100.00
33075;BME280;19433;51.292;6.868;2022-11-21T16:19:03;98543.53;;;5.29;100.00
33075;BME280;19433;51.292;6.868;2022-11-21T16:21:28;98537.16;;;5.36;100.00
33075;BME280;19433;51.292;6.868;2022-11-21T16:23:54;98543.25;;;5.44;100.00
33075;BME280;19433;51.292;6.868;2022-11-21T16:26:20;98537.34;;;5.47;100.00
33075;BME280;19433;51.292;6.868;2022-11-21T16:28:46;98521.28;;;5.51;100.00
33075;BME280;19433;51.292;6.868;2022-11-21T16:31:19;98520.31;;;5.39;100.00
33075;BME280;19433;51.292;6.868;2022-11-21T16:33:45;98517.34;;;5.47;100.00
33075;BME280;19433;51.292;6.868;2022-11-21T16:36:10;98505.53;;;5.46;100.00
33075;BME280;19433;51.292;6.868;2022-11-21T16:38:35;98497.72;;;5.50;99.86
33075;BME280;19433;51.292;6.868;2022-11-21T16:41:02;98501.91;;;5.52;100.00
33075;BME280;19433;51.292;6.868;2022-11-21T16:43:29;98497.09;;;5.48;100.00
33075;BME280;19433;51.292;6.868;2022-11-21T16:46:05;98492.25;;;5.50;99.31
33075;BME280;19433;51.292;6.868;2022-11-21T16:48:31;98489.25;;;5.51;99.67
33075;BME280;19433;51.292;6.868;2022-11-21T16:51:08;98475.00;;;5.43;100.00
33075;BME280;19433;51.292;6.868;2022-11-21T16:53:33;98481.13;;;5.38;100.00
33075;BME280;19433;51.292;6.868;2022-11-21T16:55:59;98458.00;;;5.34;100.00
33075;BME280;19433;51.292;6.868;2022-11-21T16:58:24;98448.50;;;5.37;100.00
33075;BME280;19433;51.292;6.868;2022-11-21T17:00:50;98436.34;;;5.33;99.88
33075;BME280;19433;51.292;6.868;2022-11-21T17:03:15;98427.84;;;5.41;99.81
33075;BME280;19433;51.292;6.868;2022-11-21T17:05:40;98424.38;;;5.52;100.00
33075;BME280;19433;51.292;6.868;2022-11-21T17:08:11;98426.34;;;5.45;100.00
33075;BME280;19433;51.292;6.868;2022-11-21T17:10:36;98429.69;;;5.47;100.00
33075;BME280;19433;51.292;6.868;2022-11-21T17:13:02;98418.53;;;5.48;100.00
33075;BME280;19433;51.292;6.868;2022-11-21T17:15:27;98417.22;;;5.51;100.00
33075;BME280;19433;51.292;6.868;2022-11-21T17:17:52;98414.47;;;5.51;99.76
33075;BME280;19433;51.292;6.868;2022-11-21T17:20:18;98395.81;;;5.41;100.00
33075;BME280;19433;51.292;6.868;2022-11-21T17:22:43;98408.00;;;5.45;100.00
33075;BME280;19433;51.292;6.868;2022-11-21T17:25:08;98412.34;;;5.53;99.72
33075;BME280;19433;51.292;6.868;2022-11-21T17:27:34;98420.09;;;5.62;100.00
33075;BME280;19433;51.292;6.868;2022-11-21T17:29:59;98408.75;;;5.59;100.00
33075;BME280;19433;51.292;6.868;2022-11-21T17:32:24;98422.00;;;5.62;100.00
33075;BME280;19433;51.292;6.868;2022-11-21T17:34:49;98418.13;;;5.70;100.00
33075;BME280;19433;51.292;6.868;2022-11-21T17:37:23;98402.03;;;5.55;100.00
33075;BME280;19433;51.292;6.868;2022-11-21T17:39:48;98400.78;;;5.51;100.00
33075;BME280;19433;51.292;6.868;2022-11-21T17:42:13;98382.94;;;5.48;100.00
33075;BME280;19433;51.292;6.868;2022-11-21T17:45:13;98393.53;;;5.63;100.00
33075;BME280;19433;51.292;6.868;2022-11-21T17:47:39;98394.53;;;5.69;99.90
33075;BME280;19433;51.292;6.868;2022-11-21T17:50:06;98380.69;;;5.63;100.00
33075;BME280;19433;51.292;6.868;2022-11-21T17:52:31;98361.13;;;5.60;100.00
33075;BME280;19433;51.292;6.868;2022-11-21T17:54:57;98390.19;;;5.61;100.00
33075;BME280;19433;51.292;6.868;2022-11-21T17:57:22;98384.75;;;5.54;99.87
33075;BME280;19433;51.292;6.868;2022-11-21T17:59:56;98398.66;;;5.53;99.72
33075;BME280;19433;51.292;6.868;2022-11-21T18:02:30;98405.38;;;5.57;99.67
33075;BME280;19433;51.292;6.868;2022-11-21T18:04:55;98388.56;;;5.53;99.21
33075;BME280;19433;51.292;6.868;2022-11-21T18:07:20;98389.00;;;5.50;99.76
33075;BME280;19433;51.292;6.868;2022-11-21T18:09:47;98403.09;;;5.54;98.95
33075;BME280;19433;51.292;6.868;2022-11-21T18:15:33;98403.81;;;5.43;100.00
33075;BME280;19433;51.292;6.868;2022-11-21T18:17:59;98389.09;;;5.37;99.02
33075;BME280;19433;51.292;6.868;2022-11-21T18:20:24;98387.25;;;5.31;100.00
33075;BME280;19433;51.292;6.868;2022-11-21T18:22:49;98403.53;;;5.51;99.24
33075;BME280;19433;51.292;6.868;2022-11-21T18:25:15;98408.22;;;5.44;98.79
33075;BME280;19433;51.292;6.868;2022-11-21T18:27:40;98398.44;;;5.29;99.56
33075;BME280;19433;51.292;6.868;2022-11-21T18:30:06;98401.19;;;5.29;98.36
33075;BME280;19433;51.292;6.868;2022-11-21T18:32:31;98394.31;;;5.45;98.59
33075;BME280;19433;51.292;6.868;2022-11-21T18:34:59;98385.38;;;5.56;97.19
33075;BME280;19433;51.292;6.868;2022-11-21T18:37:24;98377.44;;;5.48;97.75
33075;BME280;19433;51.292;6.868;2022-11-21T18:39:55;98374.63;;;5.55;96.87
33075;BME280;19433;51.292;6.868;2022-11-21T18:42:30;98368.94;;;5.56;96.73
33075;BME280;19433;51.292;6.868;2022-11-21T18:44:55;98367.66;;;5.59;96.35
33075;BME280;19433;51.292;6.868;2022-11-21T18:47:21;98365.34;;;5.56;98.16
33075;BME280;19433;51.292;6.868;2022-11-21T18:49:46;98370.84;;;5.56;97.76
33075;BME280;19433;51.292;6.868;2022-11-21T18:52:11;98363.25;;;5.58;97.75
33075;BME280;19433;51.292;6.868;2022-11-21T18:54:36;98359.88;;;5.56;96.58
33075;BME280;19433;51.292;6.868;2022-11-21T18:57:15;98353.13;;;5.58;96.39
33075;BME280;19433;51.292;6.868;2022-11-21T18:59:40;98336.91;;;5.57;96.89
33075;BME280;19433;51.292;6.868;2022-11-21T19:02:05;98334.41;;;5.55;97.64
33075;BME280;19433;51.292;6.868;2022-11-21T19:04:50;98329.09;;;5.60;96.76
33075;BME280;19433;51.292;6.868;2022-11-21T19:07:15;98320.69;;;5.55;97.08
33075;BME280;19433;51.292;6.868;2022-11-21T19:09:40;98315.44;;;5.54;96.80
33075;BME280;19433;51.292;6.868;2022-11-21T19:12:06;98313.94;;;5.58;97.50
33075;BME280;19433;51.292;6.868;2022-11-21T19:20:29;98291.72;;;5.66;96.42
33075;BME280;19433;51.292;6.868;2022-11-21T19:26:32;98302.63;;;5.73;97.43
33075;BME280;19433;51.292;6.868;2022-11-21T19:28:57;98288.53;;;5.69;98.09
33075;BME280;19433;51.292;6.868;2022-11-21T19:31:23;98285.44;;;5.84;96.09
33075;BME280;19433;51.292;6.868;2022-11-21T19:33:53;98281.00;;;5.83;96.38
33075;BME280;19433;51.292;6.868;2022-11-21T19:39:43;98268.16;;;5.83;95.91
33075;BME280;19433;51.292;6.868;2022-11-21T19:45:34;98269.53;;;5.74;95.94
33075;BME280;19433;51.292;6.868;2022-11-21T19:47:59;98268.06;;;5.72;97.03
33075;BME280;19433;51.292;6.868;2022-11-21T19:50:24;98282.06;;;5.82;95.45
33075;BME280;19433;51.292;6.868;2022-11-21T19:52:50;98267.69;;;5.86;95.54
33075;BME280;19433;51.292;6.868;2022-11-21T19:58:38;98276.84;;;5.80;97.26
33075;BME280;19433;51.292;6.868;2022-11-21T20:01:08;98273.97;;;5.93;95.32
33075;BME280;19433;51.292;6.868;2022-11-21T20:03:34;98257.78;;;5.92;95.37
33075;BME280;19433;51.292;6.868;2022-11-21T20:06:19;98247.03;;;5.90;96.78
33075;BME280;19433;51.292;6.868;2022-11-21T20:12:15;98243.97;;;5.80;97.47
33075;BME280;19433;51.292;6.868;2022-11-21T20:51:39;98164.22;;;5.88;95.89
33075;BME280;19433;51.292;6.868;2022-11-21T20:54:07;98166.88;;;5.95;96.27
33075;BME280;19433;51.292;6.868;2022-11-21T20:56:33;98169.34;;;5.96;94.86
33075;BME280;19433;51.292;6.868;2022-11-21T20:58:59;98160.78;;;5.93;95.59
33075;BME280;19433;51.292;6.868;2022-11-21T21:01:24;98175.56;;;5.92;95.72
33075;BME280;19433;51.292;6.868;2022-11-21T21:03:50;98178.28;;;5.92;96.35
33075;BME280;19433;51.292;6.868;2022-11-21T21:06:16;98183.66;;;5.98;95.83
33075;BME280;19433;51.292;6.868;2022-11-21T21:12:25;98158.31;;;6.03;95.78
33075;BME280;19433;51.292;6.868;2022-11-21T21:18:12;98157.09;;;5.99;95.62
33075;BME280;19433;51.292;6.868;2022-11-21T21:24:10;98143.50;;;5.92;97.60
33075;BME280;19433;51.292;6.868;2022-11-21T21:26:44;98147.81;;;5.82;98.70
33075;BME280;19433;51.292;6.868;2022-11-21T21:29:12;98156.22;;;5.69;99.19
33075;BME280;19433;51.292;6.868;2022-11-21T21:31:38;98152.03;;;5.66;100.00
33075;BME280;19433;51.292;6.868;2022-11-21T21:37:17;98155.13;;;5.88;97.63
33075;BME280;19433;51.292;6.868;2022-11-21T21:42:59;98143.41;;;5.81;99.14
33075;BME280;19433;51.292;6.868;2022-11-21T21:45:24;98151.34;;;5.89;97.90
33075;BME280;19433;51.292;6.868;2022-11-21T21:47:49;98144.34;;;5.75;99.62
33075;BME280;19433;51.292;6.868;2022-11-21T21:50:15;98142.50;;;5.87;98.30
33075;BME280;19433;51.292;6.868;2022-11-21T21:52:40;98147.78;;;5.88;98.46
33075;BME280;19433;51.292;6.868;2022-11-21T21:55:05;98135.28;;;5.92;97.31
33075;BME280;19433;51.292;6.868;2022-11-21T22:01:07;98141.41;;;5.88;97.68
33075;BME280;19433;51.292;6.868;2022-11-21T22:03:41;98136.13;;;5.93;97.30
33075;BME280;19433;51.292;6.868;2022-11-21T22:06:08;98128.03;;;5.98;96.80
33075;BME280;19433;51.292;6.868;2022-11-21T22:08:35;98131.16;;;6.02;96.22
33075;BME280;19433;51.292;6.868;2022-11-21T22:16:37;98126.22;;;5.74;99.58
33075;BME280;19433;51.292;6.868;2022-11-21T22:19:03;98125.06;;;5.81;99.74
33075;BME280;19433;51.292;6.868;2022-11-21T22:22:04;98123.50;;;5.74;99.96
33075;BME280;19433;51.292;6.868;2022-11-21T22:27:58;98137.59;;;5.59;100.00
33075;BME280;19433;51.292;6.868;2022-11-21T22:33:44;98113.34;;;5.44;100.00
33075;BME280;19433;51.292;6.868;2022-11-21T22:36:14;98109.31;;;5.47;100.00
33075;BME280;19433;51.292;6.868;2022-11-21T22:38:40;98103.50;;;5.37;100.00
33075;BME280;19433;51.292;6.868;2022-11-21T22:41:10;98091.97;;;5.16;100.00
33075;BME280;19433;51.292;6.868;2022-11-21T22:43:37;98086.97;;;5.13;100.00
33075;BME280;19433;51.292;6.868;2022-11-21T22:46:03;98089.53;;;5.08;100.00
33075;BME280;19433;51.292;6.868;2022-11-21T22:48:30;98085.44;;;4.99;100.00
33075;BME280;19433;51.292;6.868;2022-11-21T22:50:56;98078.06;;;5.00;100.00
33075;BME280;19433;51.292;6.868;2022-11-21T22:53:34;98097.06;;;4.94;100.00